createdAt,value
2023-05-22T00:02:08.260Z,25.38
2023-05-22T00:04:35.306Z,22.48
2023-05-22T00:07:02.202Z,20.55
2023-05-22T00:09:29.050Z,18.80
2023-05-22T00:11:55.922Z,18.50
2023-05-22T00:14:22.880Z,21.05
2023-05-22T00:16:50.309Z,15.52
2023-05-22T00:19:18.295Z,26.58
2023-05-22T00:21:45.448Z,17.40
2023-05-22T00:24:12.405Z,21.73
2023-05-22T00:26:39.269Z,16.42
2023-05-22T00:29:06.176Z,22.08
2023-05-22T00:31:33.043Z,20.38
2023-05-22T00:34:00.258Z,19.83
2023-05-22T00:36:27.165Z,19.35
2023-05-22T00:38:54.101Z,16.67
2023-05-22T00:41:22.532Z,15.57
2023-05-22T00:43:51.103Z,20.20
2023-05-22T00:46:21.586Z,18.48
2023-05-22T00:48:49.156Z,17.45
2023-05-22T00:51:16.190Z,16.48
2023-05-22T00:53:43.600Z,18.73
2023-05-22T00:56:10.535Z,20.73
2023-05-22T00:58:37.608Z,23.65
2023-05-22T01:01:07.676Z,18.40
2023-05-22T01:03:34.993Z,17.15
2023-05-22T01:06:02.125Z,17.50
2023-05-22T01:08:29.260Z,20.60
2023-05-22T01:11:15.275Z,20.42
2023-05-22T01:14:01.178Z,14.73
2023-05-22T01:16:55.449Z,19.13
2023-05-22T01:19:54.252Z,16.90
2023-05-22T01:23:03.062Z,22.48
2023-05-22T01:25:54.534Z,18.83
2023-05-22T01:28:40.257Z,20.10
2023-05-22T01:31:17.320Z,21.17
2023-05-22T01:33:49.006Z,20.70
2023-05-22T01:36:20.397Z,19.25
2023-05-22T01:38:48.503Z,19.77
2023-05-22T01:41:17.108Z,19.40
2023-05-22T01:43:45.703Z,21.42
2023-05-22T01:46:12.794Z,19.95
2023-05-22T01:48:39.656Z,18.58
2023-05-22T01:51:20.996Z,20.38
2023-05-22T01:53:51.818Z,24.30
2023-05-22T01:56:30.862Z,22.65
2023-05-22T01:59:09.742Z,21.45
2023-05-22T02:01:39.238Z,20.73
2023-05-22T02:04:06.647Z,21.48
2023-05-22T02:06:34.000Z,21.48
2023-05-22T02:09:03.130Z,19.05
2023-05-22T02:11:32.677Z,19.98
2023-05-22T02:13:59.704Z,20.80
2023-05-22T02:16:28.839Z,22.75
2023-05-22T02:19:05.963Z,22.95
2023-05-22T02:21:35.022Z,21.08
2023-05-22T02:24:02.760Z,22.85
2023-05-22T02:26:29.908Z,22.80
2023-05-22T02:28:56.855Z,21.33
2023-05-22T02:31:23.750Z,18.63
2023-05-22T02:33:50.901Z,23.02
2023-05-22T02:36:17.833Z,23.80
2023-05-22T02:38:44.739Z,25.00
2023-05-22T02:41:11.695Z,20.23
2023-05-22T02:43:38.607Z,19.38
2023-05-22T02:46:05.564Z,22.48
2023-05-22T02:48:32.485Z,21.95
2023-05-22T02:50:59.290Z,18.85
2023-05-22T02:53:26.494Z,20.00
2023-05-22T02:55:53.474Z,17.65
2023-05-22T02:58:21.245Z,18.25
2023-05-22T03:00:48.324Z,18.98
2023-05-22T03:03:17.994Z,20.30
2023-05-22T03:05:46.084Z,19.95
2023-05-22T03:08:13.217Z,17.50
2023-05-22T03:10:40.313Z,22.85
2023-05-22T03:13:07.377Z,21.20
2023-05-22T03:15:34.208Z,22.30
2023-05-22T03:18:01.113Z,19.02
2023-05-22T03:20:27.977Z,19.58
2023-05-22T03:22:54.828Z,18.58
2023-05-22T03:25:22.011Z,18.75
2023-05-22T03:27:48.970Z,18.40
2023-05-22T03:30:16.586Z,18.95
2023-05-22T03:32:43.530Z,20.42
2023-05-22T03:35:10.605Z,19.70
2023-05-22T03:37:37.491Z,22.17
2023-05-22T03:40:04.915Z,21.02
2023-05-22T03:42:31.946Z,19.80
2023-05-22T03:44:58.766Z,21.38
2023-05-22T03:47:25.834Z,24.20
2023-05-22T03:49:52.807Z,18.35
2023-05-22T03:52:19.636Z,23.63
2023-05-22T03:54:46.519Z,20.55
2023-05-22T03:57:14.165Z,18.08
2023-05-22T03:59:40.974Z,19.10
2023-05-22T04:02:08.027Z,22.80
2023-05-22T04:04:38.625Z,23.40
2023-05-22T04:07:08.292Z,22.00
2023-05-22T04:09:36.422Z,21.83
2023-05-22T04:12:03.625Z,21.38
2023-05-22T04:14:30.599Z,21.15
2023-05-22T04:16:57.447Z,21.00
2023-05-22T04:19:24.340Z,18.52
2023-05-22T04:21:51.238Z,20.02
2023-05-22T04:24:18.564Z,21.92
2023-05-22T04:26:45.424Z,21.42
2023-05-22T04:29:14.617Z,20.02
2023-05-22T04:31:42.160Z,21.88
2023-05-22T04:34:14.829Z,25.00
2023-05-22T04:36:41.726Z,23.77
2023-05-22T04:39:08.560Z,20.58
2023-05-22T04:41:35.432Z,18.83
2023-05-22T04:44:04.073Z,19.67
2023-05-22T04:46:31.680Z,19.13
2023-05-22T04:49:02.185Z,19.92
2023-05-22T04:51:31.119Z,19.42
2023-05-22T04:53:58.467Z,20.35
2023-05-22T04:56:35.440Z,25.65
2023-05-22T04:59:04.917Z,19.40
2023-05-22T05:01:33.346Z,21.58
2023-05-22T05:04:00.826Z,18.67
2023-05-22T05:06:27.793Z,19.40
2023-05-22T05:08:55.057Z,21.40
2023-05-22T05:11:22.035Z,22.48
2023-05-22T05:13:48.871Z,25.10
2023-05-22T05:16:16.201Z,18.05
2023-05-22T05:18:43.629Z,18.00
2023-05-22T05:21:11.092Z,17.67
2023-05-22T05:23:38.153Z,23.23
2023-05-22T05:26:05.092Z,20.70
2023-05-22T05:28:32.025Z,22.17
2023-05-22T05:30:58.926Z,22.15
2023-05-22T05:33:25.773Z,19.60
2023-05-22T05:35:53.112Z,18.10
2023-05-22T05:38:20.087Z,18.92
2023-05-22T05:40:48.588Z,20.83
2023-05-22T05:43:15.595Z,17.98
2023-05-22T05:45:43.811Z,17.08
2023-05-22T05:48:12.043Z,17.30
2023-05-22T05:50:39.438Z,23.60
2023-05-22T05:53:07.095Z,17.15
2023-05-22T05:55:34.622Z,16.85
2023-05-22T05:58:01.660Z,16.10
2023-05-22T06:00:28.739Z,19.42
2023-05-22T06:02:56.138Z,21.33
2023-05-22T06:05:23.440Z,15.27
2023-05-22T06:07:50.501Z,24.00
2023-05-22T06:10:17.435Z,27.83
2023-05-22T06:12:44.409Z,24.33
2023-05-22T06:15:13.698Z,18.40
2023-05-22T06:17:40.832Z,17.60
2023-05-22T06:20:09.039Z,13.18
2023-05-22T06:22:36.105Z,17.08
2023-05-22T06:25:03.109Z,17.73
2023-05-22T06:27:30.333Z,18.38
2023-05-22T06:29:57.195Z,20.70
2023-05-22T06:32:24.356Z,14.75
2023-05-22T06:34:51.329Z,16.30
2023-05-22T06:37:18.228Z,16.88
2023-05-22T06:39:45.127Z,14.90
2023-05-22T06:42:12.027Z,13.85
2023-05-22T06:44:38.918Z,14.70
2023-05-22T06:47:06.180Z,12.93
2023-05-22T06:49:33.107Z,15.52
2023-05-22T06:52:00.003Z,13.57
2023-05-22T06:54:28.818Z,15.00
2023-05-22T06:56:57.063Z,17.95
2023-05-22T06:59:24.216Z,15.70
2023-05-22T07:01:51.355Z,14.43
2023-05-22T07:04:18.306Z,13.13
2023-05-22T07:06:45.674Z,17.02
2023-05-22T07:09:13.870Z,11.70
2023-05-22T07:11:42.806Z,11.48
2023-05-22T07:14:12.349Z,9.50
2023-05-22T07:16:40.391Z,10.82
2023-05-22T07:19:09.032Z,13.63
2023-05-22T07:21:36.133Z,10.70
2023-05-22T07:24:08.166Z,12.88
2023-05-22T07:26:38.581Z,14.27
2023-05-22T07:29:05.482Z,12.60
2023-05-22T07:31:34.254Z,12.25
2023-05-22T07:34:01.402Z,15.32
2023-05-22T07:36:28.383Z,12.05
2023-05-22T07:38:55.528Z,13.23
2023-05-22T07:41:22.714Z,14.05
2023-05-22T07:43:49.796Z,15.13
2023-05-22T07:46:17.008Z,12.43
2023-05-22T07:48:44.134Z,13.10
2023-05-22T07:51:11.005Z,12.35
2023-05-22T07:53:37.824Z,12.93
2023-05-22T07:56:04.905Z,14.30
2023-05-22T07:58:32.113Z,19.67
2023-05-22T08:00:59.017Z,11.10
2023-05-22T08:03:26.147Z,10.10
2023-05-22T08:05:53.237Z,12.57
2023-05-22T08:08:20.128Z,11.88
2023-05-22T08:11:03.315Z,7.80
2023-05-22T08:13:31.274Z,12.33
2023-05-22T08:16:00.645Z,14.35
2023-05-22T08:18:29.557Z,9.48
2023-05-22T08:20:57.084Z,14.35
2023-05-22T08:23:24.078Z,9.38
2023-05-22T08:25:50.935Z,7.82
2023-05-22T08:28:18.397Z,10.75
2023-05-22T08:30:45.757Z,10.38
2023-05-22T08:33:12.752Z,11.18
2023-05-22T08:35:39.673Z,14.13
2023-05-22T08:38:06.682Z,14.32
2023-05-22T08:40:38.703Z,12.43
2023-05-22T08:43:07.505Z,12.80
2023-05-22T08:45:34.954Z,11.68
2023-05-22T08:48:06.236Z,12.63
2023-05-22T08:50:37.005Z,12.48
2023-05-22T08:53:07.311Z,18.42
2023-05-22T08:55:35.569Z,10.10
2023-05-22T08:58:03.172Z,7.85
2023-05-22T09:00:30.270Z,12.05
2023-05-22T09:02:58.292Z,11.48
2023-05-22T09:05:28.191Z,11.95
2023-05-22T09:07:58.317Z,9.02
2023-05-22T09:10:30.055Z,12.05
2023-05-22T09:13:01.231Z,11.18
2023-05-22T09:15:32.861Z,13.52
2023-05-22T09:18:00.724Z,11.18
2023-05-22T09:22:54.590Z,9.23
2023-05-22T09:25:22.215Z,12.63
2023-05-22T09:27:49.394Z,13.80
2023-05-22T09:30:18.017Z,20.23
2023-05-22T09:32:46.881Z,10.75
2023-05-22T09:35:17.122Z,9.82
2023-05-22T09:37:43.965Z,9.32
2023-05-22T09:40:14.267Z,9.15
2023-05-22T09:42:45.704Z,8.02
2023-05-22T09:45:13.212Z,11.50
2023-05-22T09:47:40.920Z,10.65
2023-05-22T09:50:10.457Z,11.35
2023-05-22T09:52:37.939Z,11.13
2023-05-22T09:55:08.902Z,10.63
2023-05-22T09:57:46.504Z,15.60
2023-05-22T10:00:18.575Z,10.63
2023-05-22T10:02:47.294Z,11.52
2023-05-22T10:05:22.152Z,12.50
2023-05-22T10:07:51.939Z,11.00
2023-05-22T10:10:25.002Z,7.95
2023-05-22T10:12:57.523Z,12.13
2023-05-22T10:15:24.780Z,13.55
2023-05-22T10:17:51.976Z,12.93
2023-05-22T10:20:21.734Z,13.48
2023-05-22T10:22:51.401Z,12.50
2023-05-22T10:25:18.652Z,9.13
2023-05-22T10:27:46.030Z,12.80
2023-05-22T10:30:27.739Z,12.25
2023-05-22T10:33:05.851Z,14.23
2023-05-22T10:35:45.753Z,16.65
2023-05-22T10:38:39.929Z,13.50
2023-05-22T10:41:07.536Z,8.93
2023-05-22T10:43:41.318Z,12.25
2023-05-22T10:46:09.864Z,12.45
2023-05-22T10:48:41.586Z,13.80
2023-05-22T10:51:09.034Z,21.55
2023-05-22T10:53:36.760Z,10.35
2023-05-22T10:56:11.835Z,16.95
2023-05-22T10:58:39.290Z,11.73
2023-05-22T11:01:10.008Z,12.13
2023-05-22T11:04:12.554Z,9.15
2023-05-22T11:06:42.164Z,12.93
2023-05-22T11:09:54.108Z,8.25
2023-05-22T11:12:26.465Z,12.63
2023-05-22T11:15:07.167Z,10.27
2023-05-22T11:20:25.614Z,10.32
2023-05-22T11:23:06.994Z,8.63
2023-05-22T11:25:36.529Z,12.68
2023-05-22T11:28:07.437Z,8.43
2023-05-22T11:30:34.891Z,9.85
2023-05-22T11:33:02.786Z,7.22
2023-05-22T11:35:30.017Z,9.82
2023-05-22T11:37:57.065Z,11.18
2023-05-22T11:40:29.675Z,11.18
2023-05-22T11:42:57.035Z,9.52
2023-05-22T11:45:24.379Z,7.90
2023-05-22T11:47:51.413Z,9.48
2023-05-22T11:50:29.345Z,11.25
2023-05-22T11:53:05.516Z,7.28
2023-05-22T11:55:33.938Z,8.55
2023-05-22T11:58:02.701Z,7.63
2023-05-22T12:00:31.192Z,8.75
2023-05-22T12:02:58.710Z,5.68
2023-05-22T12:05:25.878Z,7.68
2023-05-22T12:07:53.221Z,8.95
2023-05-22T12:13:10.728Z,9.27
2023-05-22T12:15:37.571Z,6.38
2023-05-22T12:18:08.676Z,8.95
2023-05-22T12:20:43.633Z,7.88
2023-05-22T12:23:30.477Z,6.15
2023-05-22T12:26:03.194Z,7.15
2023-05-22T12:28:33.488Z,9.68
2023-05-22T12:31:00.932Z,5.88
2023-05-22T12:33:29.287Z,9.48
2023-05-22T12:35:58.691Z,8.82
2023-05-22T12:38:27.207Z,5.88
2023-05-22T12:40:56.342Z,9.13
2023-05-22T12:43:25.142Z,7.03
2023-05-22T12:45:52.276Z,14.20
2023-05-22T12:48:19.835Z,7.85
2023-05-22T12:50:47.137Z,8.27
2023-05-22T12:53:14.446Z,6.85
2023-05-22T12:55:41.425Z,6.07
2023-05-22T12:58:11.040Z,7.15
2023-05-22T13:00:38.202Z,6.47
2023-05-22T13:05:33.460Z,8.30
2023-05-22T13:08:00.412Z,6.07
2023-05-22T13:10:30.627Z,5.38
2023-05-22T13:12:57.680Z,8.02
2023-05-22T13:15:29.294Z,5.10
2023-05-22T13:17:57.984Z,5.25
2023-05-22T13:20:24.913Z,11.57
2023-05-22T13:22:51.873Z,6.57
2023-05-22T13:25:19.145Z,5.88
2023-05-22T13:27:46.572Z,5.72
2023-05-22T13:30:13.776Z,6.55
2023-05-22T13:32:40.811Z,5.32
2023-05-22T13:35:07.992Z,5.80
2023-05-22T13:37:35.043Z,7.10
2023-05-22T13:40:01.971Z,7.82
2023-05-22T13:42:28.880Z,6.53
2023-05-22T13:44:55.834Z,7.15
2023-05-22T13:47:23.315Z,7.70
2023-05-22T13:49:50.782Z,7.28
2023-05-22T13:52:17.828Z,8.23
2023-05-22T13:54:44.712Z,6.40
2023-05-22T13:57:11.587Z,7.90
2023-05-22T13:59:38.499Z,10.55
2023-05-22T14:02:05.819Z,8.07
2023-05-22T14:04:32.760Z,5.47
2023-05-22T14:06:59.743Z,9.77
2023-05-22T14:09:27.186Z,5.93
2023-05-22T14:11:54.217Z,7.97
2023-05-22T14:14:23.929Z,7.50
2023-05-22T14:16:51.652Z,9.43
2023-05-22T14:19:21.968Z,8.98
2023-05-22T14:21:50.434Z,6.82
2023-05-22T14:24:17.590Z,5.82
2023-05-22T14:26:44.966Z,7.70
2023-05-22T14:29:11.971Z,10.40
2023-05-22T14:31:51.841Z,5.97
2023-05-22T14:34:19.407Z,9.90
2023-05-22T14:36:46.686Z,8.82
2023-05-22T14:39:13.535Z,10.40
2023-05-22T14:41:40.419Z,8.38
2023-05-22T14:44:07.390Z,11.02
2023-05-22T14:46:34.444Z,10.60
2023-05-22T14:49:01.314Z,11.50
2023-05-22T14:51:28.152Z,10.80
2023-05-22T14:53:55.101Z,13.38
2023-05-22T14:56:23.001Z,11.65
2023-05-22T14:58:50.126Z,12.40
2023-05-22T15:01:17.070Z,13.07
2023-05-22T15:03:43.960Z,14.23
2023-05-22T15:06:10.894Z,19.92
2023-05-22T15:08:37.860Z,14.98
2023-05-22T15:11:04.992Z,17.00
2023-05-22T15:13:31.836Z,13.75
2023-05-22T15:15:58.879Z,17.15
2023-05-22T15:18:27.265Z,15.23
2023-05-22T15:20:54.422Z,19.45
2023-05-22T15:23:25.255Z,14.48
2023-05-22T15:25:54.006Z,21.73
2023-05-22T15:28:22.160Z,14.38
2023-05-22T15:30:49.179Z,19.92
2023-05-22T15:33:16.575Z,17.85
2023-05-22T15:35:46.625Z,13.45
2023-05-22T15:38:15.533Z,15.80
2023-05-22T15:40:43.489Z,15.07
2023-05-22T15:43:10.849Z,18.83
2023-05-22T15:45:37.997Z,15.40
2023-05-22T15:48:06.097Z,20.90
2023-05-22T15:50:34.267Z,17.55
2023-05-22T15:53:01.557Z,14.70
2023-05-22T15:55:28.720Z,14.63
2023-05-22T15:58:08.354Z,10.43
2023-05-22T16:00:48.889Z,8.70
2023-05-22T16:03:17.080Z,12.63
2023-05-22T16:05:46.794Z,10.75
2023-05-22T16:08:20.966Z,10.45
2023-05-22T16:10:47.859Z,12.30
2023-05-22T16:13:14.974Z,9.55
2023-05-22T16:15:43.750Z,8.68
2023-05-22T16:18:13.143Z,9.05
2023-05-22T16:20:40.516Z,9.48
2023-05-22T16:23:07.500Z,9.52
2023-05-22T16:25:34.551Z,9.43
2023-05-22T16:28:01.536Z,10.30
2023-05-22T16:30:29.427Z,7.93
2023-05-22T16:32:56.316Z,10.95
2023-05-22T16:35:23.536Z,6.13
2023-05-22T16:37:51.565Z,7.15
2023-05-22T16:40:18.791Z,6.45
2023-05-22T16:42:45.906Z,4.45
2023-05-22T16:45:12.943Z,7.18
2023-05-22T16:47:39.925Z,8.70
2023-05-22T16:50:07.674Z,6.65
2023-05-22T16:52:34.702Z,6.03
2023-05-22T16:55:01.640Z,6.20
2023-05-22T16:57:28.718Z,5.88
2023-05-22T16:59:57.718Z,7.90
2023-05-22T17:02:25.009Z,4.55
2023-05-22T17:04:52.128Z,2.67
2023-05-22T17:07:19.033Z,4.50
2023-05-22T17:09:45.868Z,3.22
2023-05-22T17:12:12.840Z,9.88
2023-05-22T17:14:39.819Z,3.45
2023-05-22T17:17:07.759Z,6.28
2023-05-22T17:19:35.158Z,5.07
2023-05-22T17:22:02.333Z,6.40
2023-05-22T17:24:30.041Z,4.45
2023-05-22T17:26:56.997Z,6.07
2023-05-22T17:29:25.097Z,9.38
2023-05-22T17:31:53.571Z,8.13
2023-05-22T17:34:20.454Z,6.97
2023-05-22T17:36:47.327Z,9.35
2023-05-22T17:39:14.153Z,5.63
2023-05-22T17:41:41.132Z,11.07
2023-05-22T17:44:07.985Z,6.68
2023-05-22T17:46:35.002Z,5.47
2023-05-22T17:49:02.230Z,6.10
2023-05-22T17:51:29.101Z,5.90
2023-05-22T17:53:59.056Z,4.32
2023-05-22T17:56:26.681Z,5.50
2023-05-22T17:58:53.581Z,4.32
2023-05-22T18:01:20.790Z,4.82
2023-05-22T18:03:47.700Z,4.93
2023-05-22T18:06:16.826Z,2.97
2023-05-22T18:08:43.732Z,2.90
2023-05-22T18:11:10.728Z,6.72
2023-05-22T18:13:37.627Z,5.90
2023-05-22T18:16:04.936Z,3.00
2023-05-22T18:18:31.906Z,7.00
2023-05-22T18:20:59.197Z,2.55
2023-05-22T18:23:28.554Z,3.22
2023-05-22T18:25:55.450Z,3.30
2023-05-22T18:28:26.364Z,4.32
2023-05-22T18:30:53.881Z,4.85
2023-05-22T18:33:22.622Z,5.47
2023-05-22T18:35:49.488Z,5.75
2023-05-22T18:38:17.528Z,7.38
2023-05-22T18:40:44.747Z,9.40
2023-05-22T18:43:11.830Z,7.60
2023-05-22T18:45:38.852Z,8.05
2023-05-22T18:48:05.839Z,5.05
2023-05-22T18:50:33.149Z,5.28
2023-05-22T18:53:00.010Z,4.32
2023-05-22T18:55:27.221Z,5.60
2023-05-22T18:57:54.255Z,5.80
2023-05-22T19:00:21.412Z,4.93
2023-05-22T19:02:48.551Z,6.70
2023-05-22T19:05:15.538Z,6.78
2023-05-22T19:07:42.530Z,5.15
2023-05-22T19:10:09.743Z,6.03
2023-05-22T19:12:36.753Z,5.10
2023-05-22T19:15:05.116Z,9.60
2023-05-22T19:17:31.999Z,6.50
2023-05-22T19:19:59.071Z,4.80
2023-05-22T19:22:26.129Z,7.15
2023-05-22T19:24:53.015Z,10.00
2023-05-22T19:27:19.906Z,8.05
2023-05-22T19:29:46.770Z,9.20
2023-05-22T19:32:14.234Z,8.00
2023-05-22T19:34:41.217Z,5.38
2023-05-22T19:37:08.839Z,8.25
2023-05-22T19:39:35.886Z,5.00
2023-05-22T19:42:02.769Z,7.68
2023-05-22T19:44:29.663Z,5.70
2023-05-22T19:46:57.037Z,6.28
2023-05-22T19:49:24.006Z,6.00
2023-05-22T19:51:50.874Z,6.10
2023-05-22T19:54:17.846Z,4.07
2023-05-22T19:56:46.819Z,6.85
2023-05-22T19:59:13.686Z,8.00
2023-05-22T20:01:41.646Z,6.82
2023-05-22T20:04:08.912Z,5.47
2023-05-22T20:06:36.132Z,4.88
2023-05-22T20:09:05.735Z,10.05
2023-05-22T20:11:32.998Z,9.52
2023-05-22T20:14:02.463Z,8.38
2023-05-22T20:16:29.633Z,5.63
2023-05-22T20:18:56.823Z,6.38
2023-05-22T20:21:23.840Z,7.70
2023-05-22T20:23:51.396Z,5.55
2023-05-22T20:26:19.661Z,7.30
2023-05-22T20:28:46.562Z,5.60
2023-05-22T20:31:13.446Z,4.90
2023-05-22T20:33:42.555Z,5.32
2023-05-22T20:36:09.683Z,5.80
2023-05-22T20:38:36.603Z,5.38
2023-05-22T20:41:07.726Z,4.35
2023-05-22T20:43:36.077Z,8.38
2023-05-22T20:46:03.439Z,7.13
2023-05-22T20:48:30.463Z,7.28
2023-05-22T20:50:57.384Z,4.93
2023-05-22T20:53:24.579Z,6.63
2023-05-22T20:55:53.314Z,5.45
2023-05-22T20:58:20.394Z,5.38
2023-05-22T21:00:49.478Z,5.95
2023-05-22T21:03:18.332Z,11.30
2023-05-22T21:05:45.591Z,5.05
2023-05-22T21:08:12.462Z,8.02
2023-05-22T21:10:41.462Z,5.68
2023-05-22T21:13:08.553Z,7.22
2023-05-22T21:15:35.468Z,13.50
2023-05-22T21:18:02.362Z,8.75
2023-05-22T21:20:29.296Z,9.95
2023-05-22T21:22:56.147Z,6.82
2023-05-22T21:25:23.163Z,6.47
2023-05-22T21:27:50.028Z,7.38
2023-05-22T21:30:16.998Z,7.97
2023-05-22T21:32:43.934Z,8.93
2023-05-22T21:35:10.959Z,5.35
2023-05-22T21:37:38.001Z,5.95
2023-05-22T21:40:05.170Z,8.93
2023-05-22T21:42:44.616Z,8.85
2023-05-22T21:45:12.836Z,6.32
2023-05-22T21:47:39.772Z,6.10
2023-05-22T21:50:07.106Z,5.40
2023-05-22T21:52:34.015Z,8.43
2023-05-22T21:55:02.518Z,5.65
2023-05-22T21:57:29.704Z,8.32
2023-05-22T21:59:56.520Z,4.30
2023-05-22T22:02:23.446Z,12.57
2023-05-22T22:04:50.613Z,6.55
2023-05-22T22:07:17.452Z,5.85
2023-05-22T22:09:44.306Z,5.63
2023-05-22T22:12:12.241Z,5.82
2023-05-22T22:14:39.069Z,6.35
2023-05-22T22:17:07.717Z,8.93
2023-05-22T22:19:36.093Z,4.88
2023-05-22T22:22:03.357Z,8.60
2023-05-22T22:24:30.404Z,11.05
2023-05-22T22:26:57.283Z,5.15
2023-05-22T22:29:24.386Z,10.50
2023-05-22T22:31:52.810Z,7.38
2023-05-22T22:34:19.868Z,6.88
2023-05-22T22:36:47.402Z,5.68
2023-05-22T22:39:14.431Z,6.60
2023-05-22T22:41:43.344Z,5.45
2023-05-22T22:44:10.679Z,7.40
2023-05-22T22:46:37.901Z,7.80
2023-05-22T22:49:04.941Z,10.48
2023-05-22T22:51:31.899Z,7.68
2023-05-22T22:53:58.885Z,7.90
2023-05-22T22:56:29.440Z,8.50
2023-05-22T22:58:57.246Z,8.02
2023-05-22T23:01:24.587Z,6.32
2023-05-22T23:03:51.936Z,7.78
2023-05-22T23:06:19.428Z,5.80
2023-05-22T23:08:46.558Z,6.63
2023-05-22T23:11:13.366Z,9.50
2023-05-22T23:13:41.417Z,7.70
2023-05-22T23:16:08.598Z,9.60
2023-05-22T23:18:35.753Z,8.57
2023-05-22T23:21:02.837Z,8.98
2023-05-22T23:23:29.676Z,8.25
2023-05-22T23:25:58.856Z,8.80
2023-05-22T23:28:26.083Z,12.30
2023-05-22T23:30:52.992Z,9.38
2023-05-22T23:33:19.976Z,11.48
2023-05-22T23:35:46.893Z,7.50
2023-05-22T23:38:13.978Z,10.38
2023-05-22T23:40:40.858Z,16.40
2023-05-22T23:43:07.681Z,13.00
2023-05-22T23:45:34.530Z,16.33
2023-05-22T23:48:01.417Z,14.77
2023-05-22T23:50:28.305Z,13.98
2023-05-22T23:52:55.158Z,17.58
2023-05-22T23:55:22.071Z,25.17
2023-05-22T23:57:48.955Z,14.63
